sensor_id;sensor_type;location;lat;lon;timestamp;temperature;humidity
83327;DHT22;73250;55.594;13.020;2024-03-23T00:55:03;22.40;39.60
83327;DHT22;73250;55.594;13.020;2024-03-23T00:57:29;22.40;39.60
83327;DHT22;73250;55.594;13.020;2024-03-23T00:59:55;22.40;39.60
83327;DHT22;73250;55.594;13.020;2024-03-23T01:02:21;22.40;39.60
83327;DHT22;73250;55.594;13.020;2024-03-23T01:04:48;22.40;39.60
83327;DHT22;73250;55.594;13.020;2024-03-23T01:07:13;22.40;39.60
83327;DHT22;73250;55.594;13.020;2024-03-23T01:09:40;22.40;39.60
83327;DHT22;73250;55.594;13.020;2024-03-23T01:12:07;22.40;39.60
83327;DHT22;73250;55.594;13.020;2024-03-23T01:14:34;22.40;39.60
83327;DHT22;73250;55.594;13.020;2024-03-23T01:17:01;22.40;39.60
83327;DHT22;73250;55.594;13.020;2024-03-23T01:19:28;22.40;39.60
83327;DHT22;73250;55.594;13.020;2024-03-23T01:21:53;22.40;39.60
83327;DHT22;73250;55.594;13.020;2024-03-23T01:24:20;22.40;39.60
83327;DHT22;73250;55.594;13.020;2024-03-23T01:26:46;22.30;39.50
83327;DHT22;73250;55.594;13.020;2024-03-23T01:29:14;22.40;39.60
83327;DHT22;73250;55.594;13.020;2024-03-23T01:31:39;22.30;39.50
83327;DHT22;73250;55.594;13.020;2024-03-23T01:34:06;22.40;39.60
83327;DHT22;73250;55.594;13.020;2024-03-23T01:36:32;22.30;39.60
83327;DHT22;73250;55.594;13.020;2024-03-23T01:38:59;22.30;39.50
83327;DHT22;73250;55.594;13.020;2024-03-23T01:41:25;22.30;39.50
83327;DHT22;73250;55.594;13.020;2024-03-23T01:43:51;22.30;39.50
83327;DHT22;73250;55.594;13.020;2024-03-23T01:46:19;22.30;39.50
83327;DHT22;73250;55.594;13.020;2024-03-23T01:48:46;22.30;39.50
83327;DHT22;73250;55.594;13.020;2024-03-23T01:51:12;22.30;39.50
83327;DHT22;73250;55.594;13.020;2024-03-23T01:53:39;22.30;39.50
83327;DHT22;73250;55.594;13.020;2024-03-23T01:56:05;22.30;39.50
83327;DHT22;73250;55.594;13.020;2024-03-23T01:58:32;22.30;39.60
83327;DHT22;73250;55.594;13.020;2024-03-23T02:00:58;22.30;39.50
83327;DHT22;73250;55.594;13.020;2024-03-23T02:03:27;22.30;39.50
83327;DHT22;73250;55.594;13.020;2024-03-23T02:05:53;22.30;39.50
83327;DHT22;73250;55.594;13.020;2024-03-23T02:08:22;22.30;39.50
83327;DHT22;73250;55.594;13.020;2024-03-23T02:10:48;22.30;39.50
83327;DHT22;73250;55.594;13.020;2024-03-23T02:13:14;22.30;39.40
83327;DHT22;73250;55.594;13.020;2024-03-23T02:15:41;22.30;39.40
83327;DHT22;73250;55.594;13.020;2024-03-23T02:18:08;22.30;39.50
83327;DHT22;73250;55.594;13.020;2024-03-23T02:20:35;22.30;39.50
83327;DHT22;73250;55.594;13.020;2024-03-23T02:23:04;22.30;39.50
83327;DHT22;73250;55.594;13.020;2024-03-23T02:25:31;22.30;39.50
83327;DHT22;73250;55.594;13.020;2024-03-23T02:27:58;22.30;39.50
83327;DHT22;73250;55.594;13.020;2024-03-23T02:30:24;22.30;39.50
83327;DHT22;73250;55.594;13.020;2024-03-23T02:32:51;22.30;39.50
83327;DHT22;73250;55.594;13.020;2024-03-23T02:35:17;22.30;39.40
83327;DHT22;73250;55.594;13.020;2024-03-23T02:37:43;22.30;39.40
83327;DHT22;73250;55.594;13.020;2024-03-23T02:40:10;22.30;39.50
83327;DHT22;73250;55.594;13.020;2024-03-23T02:42:37;22.30;39.50
83327;DHT22;73250;55.594;13.020;2024-03-23T02:45:03;22.30;39.40
83327;DHT22;73250;55.594;13.020;2024-03-23T02:47:30;22.30;39.40
83327;DHT22;73250;55.594;13.020;2024-03-23T02:49:56;22.30;39.40
83327;DHT22;73250;55.594;13.020;2024-03-23T02:52:22;22.30;39.40
83327;DHT22;73250;55.594;13.020;2024-03-23T02:54:48;22.30;39.40
83327;DHT22;73250;55.594;13.020;2024-03-23T02:57:16;22.30;39.50
83327;DHT22;73250;55.594;13.020;2024-03-23T02:59:42;22.30;39.50
83327;DHT22;73250;55.594;13.020;2024-03-23T03:02:08;22.30;39.50
83327;DHT22;73250;55.594;13.020;2024-03-23T03:04:34;22.20;39.40
83327;DHT22;73250;55.594;13.020;2024-03-23T03:07:01;22.30;39.40
83327;DHT22;73250;55.594;13.020;2024-03-23T03:09:26;22.30;39.40
83327;DHT22;73250;55.594;13.020;2024-03-23T03:11:53;22.20;39.40
83327;DHT22;73250;55.594;13.020;2024-03-23T03:14:20;22.20;39.40
83327;DHT22;73250;55.594;13.020;2024-03-23T03:16:47;22.30;39.40
83327;DHT22;73250;55.594;13.020;2024-03-23T03:19:12;22.20;39.40
83327;DHT22;73250;55.594;13.020;2024-03-23T03:21:39;22.20;39.40
83327;DHT22;73250;55.594;13.020;2024-03-23T03:24:06;22.20;39.40
83327;DHT22;73250;55.594;13.020;2024-03-23T03:26:33;22.20;39.40
83327;DHT22;73250;55.594;13.020;2024-03-23T03:28:59;22.20;39.40
83327;DHT22;73250;55.594;13.020;2024-03-23T03:31:29;22.20;39.40
83327;DHT22;73250;55.594;13.020;2024-03-23T03:33:55;22.20;39.40
83327;DHT22;73250;55.594;13.020;2024-03-23T03:36:21;22.20;39.40
83327;DHT22;73250;55.594;13.020;2024-03-23T03:38:47;22.20;39.40
83327;DHT22;73250;55.594;13.020;2024-03-23T03:41:13;22.20;39.30
83327;DHT22;73250;55.594;13.020;2024-03-23T03:43:39;22.20;39.40
83327;DHT22;73250;55.594;13.020;2024-03-23T03:46:06;22.20;39.40
83327;DHT22;73250;55.594;13.020;2024-03-23T03:48:34;22.20;40.00
83327;DHT22;73250;55.594;13.020;2024-03-23T03:51:01;22.20;39.40
83327;DHT22;73250;55.594;13.020;2024-03-23T03:53:27;22.20;39.40
83327;DHT22;73250;55.594;13.020;2024-03-23T03:55:53;22.20;39.30
83327;DHT22;73250;55.594;13.020;2024-03-23T03:58:19;22.20;39.30
83327;DHT22;73250;55.594;13.020;2024-03-23T04:00:46;22.20;39.40
83327;DHT22;73250;55.594;13.020;2024-03-23T04:03:11;22.20;39.30
83327;DHT22;73250;55.594;13.020;2024-03-23T04:05:39;22.20;39.30
83327;DHT22;73250;55.594;13.020;2024-03-23T04:08:07;22.20;39.30
83327;DHT22;73250;55.594;13.020;2024-03-23T04:10:33;22.20;39.40
83327;DHT22;73250;55.594;13.020;2024-03-23T04:13:00;22.20;39.40
83327;DHT22;73250;55.594;13.020;2024-03-23T04:15:29;22.20;39.30
83327;DHT22;73250;55.594;13.020;2024-03-23T04:17:55;22.20;39.30
83327;DHT22;73250;55.594;13.020;2024-03-23T04:20:22;22.20;39.30
83327;DHT22;73250;55.594;13.020;2024-03-23T04:22:49;22.20;39.30
83327;DHT22;73250;55.594;13.020;2024-03-23T04:25:15;22.20;39.30
83327;DHT22;73250;55.594;13.020;2024-03-23T04:27:41;22.10;39.30
83327;DHT22;73250;55.594;13.020;2024-03-23T04:30:08;22.10;39.30
83327;DHT22;73250;55.594;13.020;2024-03-23T04:32:36;22.10;39.20
83327;DHT22;73250;55.594;13.020;2024-03-23T04:35:03;22.20;39.40
83327;DHT22;73250;55.594;13.020;2024-03-23T04:37:31;22.20;39.40
83327;DHT22;73250;55.594;13.020;2024-03-23T04:39:59;22.10;39.30
83327;DHT22;73250;55.594;13.020;2024-03-23T04:42:26;22.20;39.30
83327;DHT22;73250;55.594;13.020;2024-03-23T04:44:53;22.10;39.30
83327;DHT22;73250;55.594;13.020;2024-03-23T04:47:19;22.20;39.30
83327;DHT22;73250;55.594;13.020;2024-03-23T04:49:46;22.20;39.30
83327;DHT22;73250;55.594;13.020;2024-03-23T04:52:12;22.10;39.30
83327;DHT22;73250;55.594;13.020;2024-03-23T04:54:39;22.10;39.30
83327;DHT22;73250;55.594;13.020;2024-03-23T04:57:08;22.10;39.30
83327;DHT22;73250;55.594;13.020;2024-03-23T04:59:33;22.10;39.30
83327;DHT22;73250;55.594;13.020;2024-03-23T05:02:00;22.10;39.30
83327;DHT22;73250;55.594;13.020;2024-03-23T05:04:26;22.10;39.30
83327;DHT22;73250;55.594;13.020;2024-03-23T05:06:53;22.10;39.30
83327;DHT22;73250;55.594;13.020;2024-03-23T05:09:19;22.10;39.30
83327;DHT22;73250;55.594;13.020;2024-03-23T05:11:46;22.10;39.30
83327;DHT22;73250;55.594;13.020;2024-03-23T05:14:14;22.10;39.30
83327;DHT22;73250;55.594;13.020;2024-03-23T05:16:40;22.10;39.30
83327;DHT22;73250;55.594;13.020;2024-03-23T05:19:06;22.10;39.30
83327;DHT22;73250;55.594;13.020;2024-03-23T05:21:33;22.10;39.30
83327;DHT22;73250;55.594;13.020;2024-03-23T05:23:59;22.10;39.30
83327;DHT22;73250;55.594;13.020;2024-03-23T05:26:25;22.10;39.30
83327;DHT22;73250;55.594;13.020;2024-03-23T05:28:51;22.10;39.30
83327;DHT22;73250;55.594;13.020;2024-03-23T05:31:25;22.10;39.30
83327;DHT22;73250;55.594;13.020;2024-03-23T05:33:51;22.10;39.30
83327;DHT22;73250;55.594;13.020;2024-03-23T05:36:18;22.10;39.30
83327;DHT22;73250;55.594;13.020;2024-03-23T05:38:44;22.10;39.30
83327;DHT22;73250;55.594;13.020;2024-03-23T05:41:10;22.10;39.40
83327;DHT22;73250;55.594;13.020;2024-03-23T05:43:36;22.10;39.30
83327;DHT22;73250;55.594;13.020;2024-03-23T05:46:06;22.10;39.40
83327;DHT22;73250;55.594;13.020;2024-03-23T05:48:34;22.10;39.30
83327;DHT22;73250;55.594;13.020;2024-03-23T05:51:01;22.10;39.30
83327;DHT22;73250;55.594;13.020;2024-03-23T05:53:27;22.10;39.30
83327;DHT22;73250;55.594;13.020;2024-03-23T05:56:00;22.10;39.30
83327;DHT22;73250;55.594;13.020;2024-03-23T05:58:26;22.10;39.40
83327;DHT22;73250;55.594;13.020;2024-03-23T06:00:57;22.10;39.30
83327;DHT22;73250;55.594;13.020;2024-03-23T06:03:23;22.10;39.30
83327;DHT22;73250;55.594;13.020;2024-03-23T06:05:52;22.10;39.30
83327;DHT22;73250;55.594;13.020;2024-03-23T06:08:18;22.10;39.40
83327;DHT22;73250;55.594;13.020;2024-03-23T06:10:45;22.10;39.30
83327;DHT22;73250;55.594;13.020;2024-03-23T06:13:11;22.10;39.30
83327;DHT22;73250;55.594;13.020;2024-03-23T06:15:38;22.10;39.40
83327;DHT22;73250;55.594;13.020;2024-03-23T06:18:04;22.10;39.40
83327;DHT22;73250;55.594;13.020;2024-03-23T06:20:33;22.10;39.50
83327;DHT22;73250;55.594;13.020;2024-03-23T06:23:00;22.10;39.50
83327;DHT22;73250;55.594;13.020;2024-03-23T06:25:26;22.10;39.50
83327;DHT22;73250;55.594;13.020;2024-03-23T06:27:52;22.10;39.60
83327;DHT22;73250;55.594;13.020;2024-03-23T06:30:18;22.10;39.50
83327;DHT22;73250;55.594;13.020;2024-03-23T06:32:44;22.10;39.50
83327;DHT22;73250;55.594;13.020;2024-03-23T06:35:11;22.10;39.60
83327;DHT22;73250;55.594;13.020;2024-03-23T06:37:36;22.10;39.60
83327;DHT22;73250;55.594;13.020;2024-03-23T06:40:07;22.10;39.60
83327;DHT22;73250;55.594;13.020;2024-03-23T06:42:35;22.10;39.50
83327;DHT22;73250;55.594;13.020;2024-03-23T06:45:01;22.00;39.50
83327;DHT22;73250;55.594;13.020;2024-03-23T06:47:27;22.00;39.50
83327;DHT22;73250;55.594;13.020;2024-03-23T06:49:54;22.00;39.60
83327;DHT22;73250;55.594;13.020;2024-03-23T06:52:19;22.00;39.50
83327;DHT22;73250;55.594;13.020;2024-03-23T06:54:46;22.10;39.60
83327;DHT22;73250;55.594;13.020;2024-03-23T06:57:13;22.10;39.60
83327;DHT22;73250;55.594;13.020;2024-03-23T06:59:40;22.00;39.60
83327;DHT22;73250;55.594;13.020;2024-03-23T07:02:05;22.00;39.70
83327;DHT22;73250;55.594;13.020;2024-03-23T07:04:33;22.00;39.70
83327;DHT22;73250;55.594;13.020;2024-03-23T07:06:59;22.00;39.70
83327;DHT22;73250;55.594;13.020;2024-03-23T07:09:27;22.00;39.70
83327;DHT22;73250;55.594;13.020;2024-03-23T07:11:53;22.00;39.70
83327;DHT22;73250;55.594;13.020;2024-03-23T07:14:21;22.00;39.70
83327;DHT22;73250;55.594;13.020;2024-03-23T07:16:47;22.00;39.70
83327;DHT22;73250;55.594;13.020;2024-03-23T07:19:15;22.00;39.70
83327;DHT22;73250;55.594;13.020;2024-03-23T07:21:41;22.00;39.70
83327;DHT22;73250;55.594;13.020;2024-03-23T07:24:08;22.00;39.70
83327;DHT22;73250;55.594;13.020;2024-03-23T07:26:34;22.00;40.40
83327;DHT22;73250;55.594;13.020;2024-03-23T07:29:00;22.00;39.70
83327;DHT22;73250;55.594;13.020;2024-03-23T07:31:27;22.00;39.70
83327;DHT22;73250;55.594;13.020;2024-03-23T07:33:54;22.00;39.70
83327;DHT22;73250;55.594;13.020;2024-03-23T07:36:20;22.00;39.70
83327;DHT22;73250;55.594;13.020;2024-03-23T07:38:46;22.00;39.70
83327;DHT22;73250;55.594;13.020;2024-03-23T07:41:15;22.00;39.70
83327;DHT22;73250;55.594;13.020;2024-03-23T07:43:43;22.00;39.80
83327;DHT22;73250;55.594;13.020;2024-03-23T07:46:09;22.00;39.80
83327;DHT22;73250;55.594;13.020;2024-03-23T07:48:37;22.00;39.70
83327;DHT22;73250;55.594;13.020;2024-03-23T07:51:05;22.00;39.70
83327;DHT22;73250;55.594;13.020;2024-03-23T07:53:33;22.00;39.70
83327;DHT22;73250;55.594;13.020;2024-03-23T07:56:00;22.00;39.80
83327;DHT22;73250;55.594;13.020;2024-03-23T07:58:27;22.00;39.70
83327;DHT22;73250;55.594;13.020;2024-03-23T08:00:54;22.00;39.70
83327;DHT22;73250;55.594;13.020;2024-03-23T08:03:21;22.00;39.80
83327;DHT22;73250;55.594;13.020;2024-03-23T08:05:48;22.00;39.80
83327;DHT22;73250;55.594;13.020;2024-03-23T08:08:15;22.00;39.80
83327;DHT22;73250;55.594;13.020;2024-03-23T08:10:48;22.00;39.90
83327;DHT22;73250;55.594;13.020;2024-03-23T08:13:14;22.00;39.70
83327;DHT22;73250;55.594;13.020;2024-03-23T08:15:40;22.00;39.70
83327;DHT22;73250;55.594;13.020;2024-03-23T08:18:07;22.00;39.80
83327;DHT22;73250;55.594;13.020;2024-03-23T08:20:33;22.00;39.70
83327;DHT22;73250;55.594;13.020;2024-03-23T08:23:01;22.00;39.70
83327;DHT22;73250;55.594;13.020;2024-03-23T08:25:26;22.00;39.80
83327;DHT22;73250;55.594;13.020;2024-03-23T08:27:53;22.00;39.80
83327;DHT22;73250;55.594;13.020;2024-03-23T08:30:19;22.00;39.80
83327;DHT22;73250;55.594;13.020;2024-03-23T08:32:45;22.00;39.70
83327;DHT22;73250;55.594;13.020;2024-03-23T08:35:11;22.00;39.80
83327;DHT22;73250;55.594;13.020;2024-03-23T08:37:38;22.00;39.80
83327;DHT22;73250;55.594;13.020;2024-03-23T08:40:06;22.00;39.90
83327;DHT22;73250;55.594;13.020;2024-03-23T08:42:34;22.00;39.80
83327;DHT22;73250;55.594;13.020;2024-03-23T08:44:59;22.00;40.40
83327;DHT22;73250;55.594;13.020;2024-03-23T08:47:26;22.00;39.70
83327;DHT22;73250;55.594;13.020;2024-03-23T08:49:52;22.00;39.80
83327;DHT22;73250;55.594;13.020;2024-03-23T08:52:18;21.90;39.70
83327;DHT22;73250;55.594;13.020;2024-03-23T08:54:44;21.90;39.70
83327;DHT22;73250;55.594;13.020;2024-03-23T08:57:12;21.90;39.70
83327;DHT22;73250;55.594;13.020;2024-03-23T08:59:38;22.00;39.90
83327;DHT22;73250;55.594;13.020;2024-03-23T09:02:05;22.00;39.90
83327;DHT22;73250;55.594;13.020;2024-03-23T09:04:31;21.90;39.80
83327;DHT22;73250;55.594;13.020;2024-03-23T09:06:57;22.00;39.90
83327;DHT22;73250;55.594;13.020;2024-03-23T09:09:25;21.90;39.80
83327;DHT22;73250;55.594;13.020;2024-03-23T09:11:52;21.90;39.80
83327;DHT22;73250;55.594;13.020;2024-03-23T09:14:19;21.90;39.80
83327;DHT22;73250;55.594;13.020;2024-03-23T09:16:45;21.90;39.80
83327;DHT22;73250;55.594;13.020;2024-03-23T09:19:11;21.90;39.90
83327;DHT22;73250;55.594;13.020;2024-03-23T09:21:37;21.90;39.90
83327;DHT22;73250;55.594;13.020;2024-03-23T09:24:04;21.90;39.90
83327;DHT22;73250;55.594;13.020;2024-03-23T09:26:31;21.90;40.00
83327;DHT22;73250;55.594;13.020;2024-03-23T09:28:56;21.90;39.90
83327;DHT22;73250;55.594;13.020;2024-03-23T09:31:24;21.90;39.90
83327;DHT22;73250;55.594;13.020;2024-03-23T09:33:50;21.90;40.00
83327;DHT22;73250;55.594;13.020;2024-03-23T09:36:16;21.90;39.90
83327;DHT22;73250;55.594;13.020;2024-03-23T09:38:42;21.90;40.00
83327;DHT22;73250;55.594;13.020;2024-03-23T09:41:09;21.90;40.00
83327;DHT22;73250;55.594;13.020;2024-03-23T09:43:35;21.90;39.90
83327;DHT22;73250;55.594;13.020;2024-03-23T09:46:02;21.90;40.00
83327;DHT22;73250;55.594;13.020;2024-03-23T09:48:29;21.90;39.90
83327;DHT22;73250;55.594;13.020;2024-03-23T09:50:56;21.90;40.00
83327;DHT22;73250;55.594;13.020;2024-03-23T09:53:22;21.90;40.00
83327;DHT22;73250;55.594;13.020;2024-03-23T09:55:49;21.90;40.00
83327;DHT22;73250;55.594;13.020;2024-03-23T09:58:17;21.90;40.00
83327;DHT22;73250;55.594;13.020;2024-03-23T10:00:44;21.90;40.00
83327;DHT22;73250;55.594;13.020;2024-03-23T10:03:10;21.90;40.00
83327;DHT22;73250;55.594;13.020;2024-03-23T10:05:38;21.90;40.00
83327;DHT22;73250;55.594;13.020;2024-03-23T10:08:18;21.90;40.00
83327;DHT22;73250;55.594;13.020;2024-03-23T10:10:46;21.90;40.00
83327;DHT22;73250;55.594;13.020;2024-03-23T10:13:24;21.90;40.00
83327;DHT22;73250;55.594;13.020;2024-03-23T10:15:55;21.90;39.90
83327;DHT22;73250;55.594;13.020;2024-03-23T10:18:22;21.90;40.00
83327;DHT22;73250;55.594;13.020;2024-03-23T10:21:00;21.90;40.00
83327;DHT22;73250;55.594;13.020;2024-03-23T10:23:31;21.90;40.00
83327;DHT22;73250;55.594;13.020;2024-03-23T10:26:12;21.90;40.00
83327;DHT22;73250;55.594;13.020;2024-03-23T10:28:54;21.90;40.00
83327;DHT22;73250;55.594;13.020;2024-03-23T10:31:22;21.90;40.00
83327;DHT22;73250;55.594;13.020;2024-03-23T10:33:48;21.90;40.00
83327;DHT22;73250;55.594;13.020;2024-03-23T10:36:17;21.90;40.00
83327;DHT22;73250;55.594;13.020;2024-03-23T10:38:44;21.90;40.00
83327;DHT22;73250;55.594;13.020;2024-03-23T10:41:10;21.90;39.90
83327;DHT22;73250;55.594;13.020;2024-03-23T10:43:37;21.90;40.00
83327;DHT22;73250;55.594;13.020;2024-03-23T10:46:04;21.90;40.00
83327;DHT22;73250;55.594;13.020;2024-03-23T10:48:32;21.90;40.00
83327;DHT22;73250;55.594;13.020;2024-03-23T10:50:58;21.90;40.00
83327;DHT22;73250;55.594;13.020;2024-03-23T10:53:28;21.90;39.90
83327;DHT22;73250;55.594;13.020;2024-03-23T10:55:55;21.90;40.00
83327;DHT22;73250;55.594;13.020;2024-03-23T10:58:24;21.90;40.00
83327;DHT22;73250;55.594;13.020;2024-03-23T11:00:52;21.90;40.00
83327;DHT22;73250;55.594;13.020;2024-03-23T11:03:35;21.90;40.00
83327;DHT22;73250;55.594;13.020;2024-03-23T11:06:02;21.90;39.90
83327;DHT22;73250;55.594;13.020;2024-03-23T11:08:34;21.90;40.00
83327;DHT22;73250;55.594;13.020;2024-03-23T11:11:22;21.90;40.00
83327;DHT22;73250;55.594;13.020;2024-03-23T11:13:52;21.90;39.90
83327;DHT22;73250;55.594;13.020;2024-03-23T11:16:22;21.80;39.90
83327;DHT22;73250;55.594;13.020;2024-03-23T11:18:50;21.90;39.90
83327;DHT22;73250;55.594;13.020;2024-03-23T11:24:17;21.90;40.00
83327;DHT22;73250;55.594;13.020;2024-03-23T11:26:44;21.80;40.00
83327;DHT22;73250;55.594;13.020;2024-03-23T11:29:11;21.80;39.90
83327;DHT22;73250;55.594;13.020;2024-03-23T11:31:37;21.80;39.90
83327;DHT22;73250;55.594;13.020;2024-03-23T11:34:04;21.80;39.90
83327;DHT22;73250;55.594;13.020;2024-03-23T11:36:30;21.90;40.60
83327;DHT22;73250;55.594;13.020;2024-03-23T11:38:57;21.80;39.90
83327;DHT22;73250;55.594;13.020;2024-03-23T11:41:25;21.80;39.90
83327;DHT22;73250;55.594;13.020;2024-03-23T11:43:51;21.80;39.90
83327;DHT22;73250;55.594;13.020;2024-03-23T11:46:22;21.80;39.90
83327;DHT22;73250;55.594;13.020;2024-03-23T11:48:50;21.90;40.00
83327;DHT22;73250;55.594;13.020;2024-03-23T11:51:17;21.80;40.10
83327;DHT22;73250;55.594;13.020;2024-03-23T11:53:43;21.80;40.10
83327;DHT22;73250;55.594;13.020;2024-03-23T11:56:09;21.90;40.00
83327;DHT22;73250;55.594;13.020;2024-03-23T11:58:37;21.80;39.80
83327;DHT22;73250;55.594;13.020;2024-03-23T12:01:04;21.90;39.80
83327;DHT22;73250;55.594;13.020;2024-03-23T12:03:31;21.80;39.70
83327;DHT22;73250;55.594;13.020;2024-03-23T12:05:59;21.80;39.60
83327;DHT22;73250;55.594;13.020;2024-03-23T12:08:30;21.80;39.60
83327;DHT22;73250;55.594;13.020;2024-03-23T12:11:05;21.80;39.60
83327;DHT22;73250;55.594;13.020;2024-03-23T12:13:32;21.80;39.50
83327;DHT22;73250;55.594;13.020;2024-03-23T12:16:11;21.80;39.60
83327;DHT22;73250;55.594;13.020;2024-03-23T12:18:39;21.80;39.60
83327;DHT22;73250;55.594;13.020;2024-03-23T12:21:05;21.80;39.60
83327;DHT22;73250;55.594;13.020;2024-03-23T12:23:32;21.80;39.70
83327;DHT22;73250;55.594;13.020;2024-03-23T12:25:58;21.80;40.30
83327;DHT22;73250;55.594;13.020;2024-03-23T12:28:25;21.80;39.60
83327;DHT22;73250;55.594;13.020;2024-03-23T12:30:51;21.80;39.60
83327;DHT22;73250;55.594;13.020;2024-03-23T12:33:21;21.80;39.60
83327;DHT22;73250;55.594;13.020;2024-03-23T12:35:46;21.80;39.60
83327;DHT22;73250;55.594;13.020;2024-03-23T12:38:13;21.80;39.60
83327;DHT22;73250;55.594;13.020;2024-03-23T12:40:39;21.80;39.60
83327;DHT22;73250;55.594;13.020;2024-03-23T12:43:06;21.80;39.60
83327;DHT22;73250;55.594;13.020;2024-03-23T12:45:33;21.80;39.60
83327;DHT22;73250;55.594;13.020;2024-03-23T12:47:59;21.80;39.60
83327;DHT22;73250;55.594;13.020;2024-03-23T12:50:26;21.80;39.60
83327;DHT22;73250;55.594;13.020;2024-03-23T12:52:53;21.80;39.60
83327;DHT22;73250;55.594;13.020;2024-03-23T12:55:19;21.80;39.60
83327;DHT22;73250;55.594;13.020;2024-03-23T12:57:46;21.80;39.50
83327;DHT22;73250;55.594;13.020;2024-03-23T13:00:12;21.80;39.60
83327;DHT22;73250;55.594;13.020;2024-03-23T13:02:41;21.80;39.60
83327;DHT22;73250;55.594;13.020;2024-03-23T13:05:07;21.80;39.60
83327;DHT22;73250;55.594;13.020;2024-03-23T13:07:36;21.80;39.60
83327;DHT22;73250;55.594;13.020;2024-03-23T13:10:04;21.80;39.60
83327;DHT22;73250;55.594;13.020;2024-03-23T13:12:31;21.80;39.60
83327;DHT22;73250;55.594;13.020;2024-03-23T13:14:58;21.80;39.60
83327;DHT22;73250;55.594;13.020;2024-03-23T13:17:25;21.80;39.60
83327;DHT22;73250;55.594;13.020;2024-03-23T13:19:52;21.80;39.50
83327;DHT22;73250;55.594;13.020;2024-03-23T13:22:18;21.80;39.60
83327;DHT22;73250;55.594;13.020;2024-03-23T13:24:46;21.80;39.50
83327;DHT22;73250;55.594;13.020;2024-03-23T13:27:11;21.80;39.40
83327;DHT22;73250;55.594;13.020;2024-03-23T13:29:38;21.80;39.40
83327;DHT22;73250;55.594;13.020;2024-03-23T13:32:04;21.80;39.30
83327;DHT22;73250;55.594;13.020;2024-03-23T13:34:31;21.70;39.40
83327;DHT22;73250;55.594;13.020;2024-03-23T13:36:58;21.80;39.50
83327;DHT22;73250;55.594;13.020;2024-03-23T13:39:25;21.80;39.50
83327;DHT22;73250;55.594;13.020;2024-03-23T13:41:54;21.80;39.50
83327;DHT22;73250;55.594;13.020;2024-03-23T13:44:21;21.80;39.50
83327;DHT22;73250;55.594;13.020;2024-03-23T13:46:47;21.80;39.50
83327;DHT22;73250;55.594;13.020;2024-03-23T13:49:25;21.80;39.50
83327;DHT22;73250;55.594;13.020;2024-03-23T13:51:52;21.80;39.50
83327;DHT22;73250;55.594;13.020;2024-03-23T13:54:18;21.80;39.50
83327;DHT22;73250;55.594;13.020;2024-03-23T13:56:44;21.80;39.50
83327;DHT22;73250;55.594;13.020;2024-03-23T13:59:12;21.80;39.50
83327;DHT22;73250;55.594;13.020;2024-03-23T14:01:38;21.80;39.50
83327;DHT22;73250;55.594;13.020;2024-03-23T14:04:04;21.80;39.40
83327;DHT22;73250;55.594;13.020;2024-03-23T14:06:30;21.70;39.10
83327;DHT22;73250;55.594;13.020;2024-03-23T14:08:56;21.80;39.10
83327;DHT22;73250;55.594;13.020;2024-03-23T14:11:22;21.70;38.90
83327;DHT22;73250;55.594;13.020;2024-03-23T14:13:51;21.70;38.80
83327;DHT22;73250;55.594;13.020;2024-03-23T14:16:18;21.70;38.70
83327;DHT22;73250;55.594;13.020;2024-03-23T14:18:46;21.70;38.60
83327;DHT22;73250;55.594;13.020;2024-03-23T14:21:12;21.80;38.60
83327;DHT22;73250;55.594;13.020;2024-03-23T14:23:38;21.70;38.50
83327;DHT22;73250;55.594;13.020;2024-03-23T14:26:06;21.70;38.50
83327;DHT22;73250;55.594;13.020;2024-03-23T14:28:33;21.70;38.40
83327;DHT22;73250;55.594;13.020;2024-03-23T14:31:00;21.70;38.40
83327;DHT22;73250;55.594;13.020;2024-03-23T14:33:27;21.70;38.40
83327;DHT22;73250;55.594;13.020;2024-03-23T14:35:54;21.70;38.30
83327;DHT22;73250;55.594;13.020;2024-03-23T14:38:21;21.70;38.30
83327;DHT22;73250;55.594;13.020;2024-03-23T14:40:47;21.70;38.20
83327;DHT22;73250;55.594;13.020;2024-03-23T14:43:14;21.70;38.20
83327;DHT22;73250;55.594;13.020;2024-03-23T14:48:31;21.70;38.10
83327;DHT22;73250;55.594;13.020;2024-03-23T14:50:58;21.70;38.10
83327;DHT22;73250;55.594;13.020;2024-03-23T14:53:25;21.70;38.10
83327;DHT22;73250;55.594;13.020;2024-03-23T14:55:51;21.70;38.10
83327;DHT22;73250;55.594;13.020;2024-03-23T14:58:20;21.70;38.10
83327;DHT22;73250;55.594;13.020;2024-03-23T15:00:48;21.70;38.00
83327;DHT22;73250;55.594;13.020;2024-03-23T15:03:15;21.70;38.60
83327;DHT22;73250;55.594;13.020;2024-03-23T15:05:42;21.70;38.00
83327;DHT22;73250;55.594;13.020;2024-03-23T15:08:17;21.70;37.90
83327;DHT22;73250;55.594;13.020;2024-03-23T15:10:43;21.70;37.90
83327;DHT22;73250;55.594;13.020;2024-03-23T15:13:10;21.70;37.90
83327;DHT22;73250;55.594;13.020;2024-03-23T15:15:38;21.70;37.90
83327;DHT22;73250;55.594;13.020;2024-03-23T15:18:06;21.70;37.90
83327;DHT22;73250;55.594;13.020;2024-03-23T15:20:32;21.70;37.90
83327;DHT22;73250;55.594;13.020;2024-03-23T15:23:02;21.70;37.90
83327;DHT22;73250;55.594;13.020;2024-03-23T15:25:28;21.70;37.80
83327;DHT22;73250;55.594;13.020;2024-03-23T15:27:54;21.70;37.80
83327;DHT22;73250;55.594;13.020;2024-03-23T15:30:20;21.70;37.80
83327;DHT22;73250;55.594;13.020;2024-03-23T15:32:47;21.70;37.70
83327;DHT22;73250;55.594;13.020;2024-03-23T15:35:13;21.70;37.70
83327;DHT22;73250;55.594;13.020;2024-03-23T15:37:39;21.70;37.70
83327;DHT22;73250;55.594;13.020;2024-03-23T15:40:08;21.70;37.70
83327;DHT22;73250;55.594;13.020;2024-03-23T15:42:37;21.70;37.70
83327;DHT22;73250;55.594;13.020;2024-03-23T15:45:05;21.70;37.70
83327;DHT22;73250;55.594;13.020;2024-03-23T15:47:32;21.70;37.70
83327;DHT22;73250;55.594;13.020;2024-03-23T15:49:58;21.70;37.70
83327;DHT22;73250;55.594;13.020;2024-03-23T15:52:25;21.70;37.70
83327;DHT22;73250;55.594;13.020;2024-03-23T15:54:50;21.70;37.70
83327;DHT22;73250;55.594;13.020;2024-03-23T15:57:19;21.70;37.70
83327;DHT22;73250;55.594;13.020;2024-03-23T15:59:44;21.70;37.70
83327;DHT22;73250;55.594;13.020;2024-03-23T16:02:11;21.70;37.70
83327;DHT22;73250;55.594;13.020;2024-03-23T16:04:36;21.70;37.70
83327;DHT22;73250;55.594;13.020;2024-03-23T16:07:03;21.70;37.70
83327;DHT22;73250;55.594;13.020;2024-03-23T16:09:29;21.70;37.70
83327;DHT22;73250;55.594;13.020;2024-03-23T16:11:55;21.70;37.70
83327;DHT22;73250;55.594;13.020;2024-03-23T16:14:22;21.70;38.30